createdAt,value
2023-05-14T00:01:57.378Z,100503.97
2023-05-14T00:06:11.146Z,100514.56
2023-05-14T00:10:23.730Z,100510.16
2023-05-14T00:14:36.291Z,100490.56
2023-05-14T00:18:48.726Z,100485.19
2023-05-14T00:23:01.407Z,100480.81
2023-05-14T00:27:14.305Z,100465.31
2023-05-14T00:31:26.739Z,100439.84
2023-05-14T00:35:39.317Z,100429.75
2023-05-14T00:39:51.636Z,100411.13
2023-05-14T00:44:04.159Z,100424.78
2023-05-14T00:48:16.650Z,100425.56
2023-05-14T00:52:29.255Z,100428.28
2023-05-14T00:56:42.459Z,100450.50
2023-05-14T01:00:54.953Z,100438.19
2023-05-14T01:05:08.841Z,100436.44
2023-05-14T01:09:44.111Z,100436.44
2023-05-14T01:14:18.997Z,100435.22
2023-05-14T01:18:33.401Z,100446.84
2023-05-14T01:22:46.077Z,100439.00
2023-05-14T01:27:07.368Z,100438.09
2023-05-14T01:31:28.112Z,100447.78
2023-05-14T01:35:41.756Z,100470.13
2023-05-14T01:39:56.362Z,100471.81
2023-05-14T01:44:10.183Z,100486.91
2023-05-14T01:48:23.245Z,100520.50
2023-05-14T01:52:36.765Z,100525.97
2023-05-14T01:56:49.229Z,100562.34
2023-05-14T02:01:02.211Z,100591.66
2023-05-14T02:05:14.850Z,100589.13
2023-05-14T02:09:27.259Z,100589.44
2023-05-14T02:13:39.748Z,100571.75
2023-05-14T02:17:52.227Z,100574.47
2023-05-14T02:22:04.794Z,100548.34
2023-05-14T02:26:17.630Z,100513.50
2023-05-14T02:30:31.592Z,100485.41
2023-05-14T02:34:44.032Z,100464.78
2023-05-14T02:38:56.542Z,100452.56
2023-05-14T02:43:08.997Z,100406.34
2023-05-14T02:47:21.724Z,100404.47
2023-05-14T02:51:35.645Z,100410.53
2023-05-14T02:55:48.026Z,100396.84
2023-05-14T03:00:00.423Z,100384.38
2023-05-14T03:04:13.287Z,100385.47
2023-05-14T03:08:26.117Z,100359.75
2023-05-14T03:12:38.449Z,100358.13
2023-05-14T03:16:51.008Z,100365.91
2023-05-14T03:21:04.282Z,100380.13
2023-05-14T03:25:16.744Z,100403.84
2023-05-14T03:29:29.162Z,100392.53
2023-05-14T03:33:41.761Z,100381.13
2023-05-14T03:37:54.369Z,100371.47
2023-05-14T03:42:06.991Z,100339.13
2023-05-14T03:46:19.489Z,100350.84
2023-05-14T03:50:32.269Z,100354.44
2023-05-14T03:54:44.853Z,100354.50
2023-05-14T03:58:57.385Z,100351.84
2023-05-14T04:03:10.218Z,100336.75
2023-05-14T04:07:22.868Z,100332.84
2023-05-14T04:11:35.318Z,100309.75
2023-05-14T04:15:47.758Z,100314.25
2023-05-14T04:20:00.249Z,100331.06
2023-05-14T04:24:12.701Z,100336.53
2023-05-14T04:28:25.260Z,100351.75
2023-05-14T04:32:38.291Z,100369.56
2023-05-14T04:36:51.586Z,100394.31
2023-05-14T04:41:04.149Z,100396.13
2023-05-14T04:45:17.086Z,100392.38
2023-05-14T04:49:29.959Z,100393.31
2023-05-14T04:53:42.447Z,100398.72
2023-05-14T04:57:55.050Z,100403.31
2023-05-14T05:02:07.459Z,100394.38
2023-05-14T05:06:19.852Z,100396.91
2023-05-14T05:10:32.213Z,100389.03
2023-05-14T05:14:44.519Z,100381.06
2023-05-14T05:18:57.062Z,100395.97
2023-05-14T05:23:09.510Z,100408.97
2023-05-14T05:27:22.333Z,100412.59
2023-05-14T05:31:34.941Z,100403.41
2023-05-14T05:35:48.526Z,100391.91
2023-05-14T05:40:01.051Z,100389.81
2023-05-14T05:44:13.482Z,100391.47
2023-05-14T05:48:25.970Z,100378.56
2023-05-14T05:52:39.239Z,100378.19
2023-05-14T05:56:52.260Z,100389.41
2023-05-14T06:01:04.674Z,100377.13
2023-05-14T06:05:17.253Z,100370.75
2023-05-14T06:09:30.956Z,100323.22
2023-05-14T06:13:43.464Z,100345.44
2023-05-14T06:17:55.972Z,100352.41
2023-05-14T06:22:08.377Z,100362.50
2023-05-14T06:26:21.332Z,100359.97
2023-05-14T06:30:33.756Z,100382.16
2023-05-14T06:34:46.183Z,100370.75
2023-05-14T06:38:58.556Z,100339.97
2023-05-14T06:43:10.946Z,100345.53
2023-05-14T06:47:23.494Z,100323.81
2023-05-14T06:51:36.062Z,100331.81
2023-05-14T06:55:49.091Z,100321.31
2023-05-14T07:00:03.243Z,100297.41
2023-05-14T07:04:16.335Z,100288.56
2023-05-14T07:08:28.827Z,100287.28
2023-05-14T07:12:41.341Z,100292.59
2023-05-14T07:16:53.962Z,100279.72
2023-05-14T07:21:06.849Z,100268.41
2023-05-14T07:25:19.298Z,100265.88
2023-05-14T07:29:31.741Z,100266.47
2023-05-14T07:33:44.202Z,100282.25
2023-05-14T07:37:56.702Z,100285.59
2023-05-14T07:42:09.481Z,100288.78
2023-05-14T07:46:21.959Z,100290.88
2023-05-14T07:50:34.546Z,100277.94
2023-05-14T07:54:48.028Z,100280.16
2023-05-14T07:59:01.868Z,100289.16
2023-05-14T08:03:14.457Z,100288.97
2023-05-14T08:07:28.781Z,100292.28
2023-05-14T08:11:41.187Z,100293.50
2023-05-14T08:15:53.628Z,100296.00
2023-05-14T08:20:07.744Z,100301.97
2023-05-14T08:24:20.177Z,100310.50
2023-05-14T08:28:32.775Z,100298.78
2023-05-14T08:32:45.241Z,100301.66
2023-05-14T08:36:57.817Z,100286.84
2023-05-14T08:41:12.020Z,100284.00
2023-05-14T08:45:34.208Z,100292.25
2023-05-14T08:50:07.692Z,100294.41
2023-05-14T08:54:22.758Z,100316.16
2023-05-14T08:58:35.123Z,100330.41
2023-05-14T09:02:49.148Z,100333.25
2023-05-14T09:07:02.972Z,100345.06
2023-05-14T09:11:15.280Z,100335.63
2023-05-14T09:15:29.858Z,100324.66
2023-05-14T09:19:44.195Z,100320.09
2023-05-14T09:23:57.926Z,100311.03
2023-05-14T09:28:10.413Z,100319.19
2023-05-14T09:32:22.832Z,100314.94
2023-05-14T09:36:35.614Z,100317.81
2023-05-14T09:40:49.487Z,100321.44
2023-05-14T09:45:02.092Z,100325.25
2023-05-14T09:49:15.058Z,100325.16
2023-05-14T09:53:27.671Z,100320.94
2023-05-14T09:57:40.246Z,100329.16
2023-05-14T10:01:53.298Z,100335.28
2023-05-14T10:06:07.072Z,100344.84
2023-05-14T10:10:21.297Z,100340.44
2023-05-14T10:14:41.568Z,100332.25
2023-05-14T10:18:59.511Z,100312.69
2023-05-14T10:23:12.576Z,100315.53
2023-05-14T10:27:25.994Z,100320.50
2023-05-14T10:31:57.190Z,100341.91
2023-05-14T10:36:10.793Z,100343.19
2023-05-14T10:40:24.978Z,100342.72
2023-05-14T10:44:47.599Z,100349.06
2023-05-14T10:49:00.117Z,100325.28
2023-05-14T10:53:14.036Z,100330.94
2023-05-14T10:57:28.904Z,100335.25
2023-05-14T11:01:41.648Z,100318.94
2023-05-14T11:05:55.445Z,100327.81
2023-05-14T11:10:10.137Z,100331.59
2023-05-14T11:14:23.403Z,100344.88
2023-05-14T11:18:38.962Z,100332.50
2023-05-14T11:22:54.118Z,100294.25
2023-05-14T11:27:09.639Z,100310.06
2023-05-14T11:31:23.643Z,100337.97
2023-05-14T11:35:37.226Z,100344.22
2023-05-14T11:39:51.375Z,100343.22
2023-05-14T11:44:04.083Z,100344.84
2023-05-14T11:48:16.556Z,100324.28
2023-05-14T11:52:29.145Z,100318.72
2023-05-14T11:56:41.539Z,100316.31
2023-05-14T12:00:55.884Z,100328.03
2023-05-14T12:05:09.387Z,100339.06
2023-05-14T12:09:22.928Z,100341.59
2023-05-14T12:13:37.451Z,100356.38
2023-05-14T12:17:52.033Z,100344.00
2023-05-14T12:22:04.690Z,100332.97
2023-05-14T12:26:17.219Z,100316.59
2023-05-14T12:30:38.441Z,100313.44
2023-05-14T12:34:51.110Z,100298.72
2023-05-14T12:39:04.304Z,100302.63
2023-05-14T12:43:16.671Z,100281.81
2023-05-14T12:47:29.241Z,100289.63
2023-05-14T12:51:41.929Z,100307.66
2023-05-14T12:55:55.904Z,100310.91
2023-05-14T13:00:14.079Z,100284.19
2023-05-14T13:04:27.063Z,100271.03
2023-05-14T13:08:41.017Z,100307.53
2023-05-14T13:12:56.632Z,100297.31
2023-05-14T13:17:09.080Z,100314.47
2023-05-14T13:21:21.926Z,100291.59
2023-05-14T13:25:34.841Z,100284.97
2023-05-14T13:29:47.321Z,100246.06
2023-05-14T13:33:59.975Z,100243.06
2023-05-14T13:38:12.349Z,100244.50
2023-05-14T13:42:24.779Z,100228.84
2023-05-14T13:46:37.281Z,100223.81
2023-05-14T13:50:50.058Z,100222.84
2023-05-14T13:55:02.452Z,100232.00
2023-05-14T13:59:15.587Z,100219.22
2023-05-14T14:03:27.989Z,100212.00
2023-05-14T14:07:41.049Z,100216.81
2023-05-14T14:11:53.719Z,100241.50
2023-05-14T14:16:07.118Z,100247.44
2023-05-14T14:20:19.504Z,100253.19
2023-05-14T14:24:31.921Z,100239.59
2023-05-14T14:28:44.307Z,100236.66
2023-05-14T14:32:57.145Z,100210.53
2023-05-14T14:37:09.665Z,100176.56
2023-05-14T14:41:22.684Z,100189.41
2023-05-14T14:45:35.283Z,100191.38
2023-05-14T14:49:47.797Z,100218.72
2023-05-14T14:54:00.370Z,100197.88
2023-05-14T14:58:12.878Z,100184.41
2023-05-14T15:02:25.918Z,100173.69
2023-05-14T15:06:38.418Z,100189.16
2023-05-14T15:10:50.901Z,100187.53
2023-05-14T15:15:03.370Z,100195.91
2023-05-14T15:19:15.841Z,100220.59
2023-05-14T15:23:28.343Z,100229.91
2023-05-14T15:27:40.904Z,100227.56
2023-05-14T15:31:53.421Z,100248.81
2023-05-14T15:36:08.524Z,100240.41
2023-05-14T15:40:21.085Z,100212.69
2023-05-14T15:44:33.568Z,100221.28
2023-05-14T15:48:46.141Z,100218.69
2023-05-14T15:52:58.550Z,100214.09
2023-05-14T15:57:11.088Z,100208.53
2023-05-14T16:01:23.486Z,100193.19
2023-05-14T16:05:36.846Z,100167.50
2023-05-14T16:09:49.204Z,100146.28
2023-05-14T16:14:01.602Z,100142.97
2023-05-14T16:18:14.028Z,100148.03
2023-05-14T16:22:27.043Z,100153.88
2023-05-14T16:26:40.273Z,100165.56
2023-05-14T16:30:52.710Z,100171.59
2023-05-14T16:35:05.494Z,100177.25
2023-05-14T16:39:17.855Z,100195.13
2023-05-14T16:43:30.357Z,100181.56
2023-05-14T16:47:42.780Z,100172.91
2023-05-14T16:51:55.263Z,100195.97
2023-05-14T16:56:07.878Z,100192.84
2023-05-14T17:00:20.283Z,100194.16
2023-05-14T17:04:33.652Z,100231.72
2023-05-14T17:08:46.207Z,100225.31
2023-05-14T17:12:58.757Z,100225.56
2023-05-14T17:17:11.287Z,100243.06
2023-05-14T17:21:23.865Z,100246.66
2023-05-14T17:25:36.302Z,100254.66
2023-05-14T17:29:51.255Z,100266.50
2023-05-14T17:34:03.736Z,100258.00
2023-05-14T17:38:16.042Z,100269.97
2023-05-14T17:42:28.620Z,100263.59
2023-05-14T17:46:42.017Z,100267.09
2023-05-14T17:50:54.536Z,100256.22
2023-05-14T17:55:07.277Z,100258.53
2023-05-14T17:59:19.837Z,100258.00
2023-05-14T18:03:32.446Z,100247.53
2023-05-14T18:07:44.936Z,100257.53
2023-05-14T18:11:57.391Z,100260.41
2023-05-14T18:16:09.867Z,100249.81
2023-05-14T18:20:22.233Z,100241.06
2023-05-14T18:24:34.583Z,100242.00
2023-05-14T18:28:47.017Z,100223.88
2023-05-14T18:33:00.154Z,100232.88
2023-05-14T18:37:12.851Z,100232.28
2023-05-14T18:41:25.332Z,100250.16
2023-05-14T18:45:37.897Z,100266.00
2023-05-14T18:49:55.152Z,100278.72
2023-05-14T18:54:07.563Z,100286.59
2023-05-14T18:58:19.998Z,100286.53
2023-05-14T19:02:32.539Z,100304.56
2023-05-14T19:06:45.127Z,100313.72
2023-05-14T19:10:57.670Z,100328.06
2023-05-14T19:15:10.973Z,100364.84
2023-05-14T19:19:23.482Z,100402.63
2023-05-14T19:23:36.013Z,100429.75
2023-05-14T19:27:51.348Z,100447.19
2023-05-14T19:32:04.917Z,100468.13
2023-05-14T19:36:17.382Z,100489.53
2023-05-14T19:40:29.892Z,100499.31
2023-05-14T19:44:42.209Z,100527.16
2023-05-14T19:48:57.578Z,100526.00
2023-05-14T19:53:10.107Z,100511.00
2023-05-14T19:57:22.742Z,100511.44
2023-05-14T20:01:35.331Z,100514.41
2023-05-14T20:05:49.221Z,100529.03
2023-05-14T20:10:01.766Z,100513.34
2023-05-14T20:14:14.592Z,100511.78
2023-05-14T20:18:28.539Z,100510.31
2023-05-14T20:22:42.880Z,100498.13
2023-05-14T20:26:55.525Z,100506.91
2023-05-14T20:31:08.290Z,100498.97
2023-05-14T20:35:20.872Z,100485.78
2023-05-14T20:39:33.401Z,100453.59
2023-05-14T20:43:46.094Z,100392.00
2023-05-14T20:47:59.835Z,100382.28
2023-05-14T20:52:13.678Z,100354.34
2023-05-14T20:56:26.920Z,100259.03
2023-05-14T21:00:39.505Z,100256.78
2023-05-14T21:04:52.529Z,100228.19
2023-05-14T21:09:06.238Z,100209.63
2023-05-14T21:13:18.854Z,100196.38
2023-05-14T21:17:31.476Z,100166.03
2023-05-14T21:21:44.075Z,100155.47
2023-05-14T21:25:56.623Z,100152.47
2023-05-14T21:30:09.672Z,100144.81
2023-05-14T21:34:22.162Z,100103.84
2023-05-14T21:38:35.332Z,100105.03
2023-05-14T21:42:47.800Z,100107.72
2023-05-14T21:47:00.177Z,100086.91
2023-05-14T21:51:12.695Z,100087.63
2023-05-14T21:55:26.011Z,100073.16
2023-05-14T21:59:38.509Z,100075.28
2023-05-14T22:03:50.969Z,100050.44
2023-05-14T22:08:03.398Z,100047.56
2023-05-14T22:12:16.115Z,100042.09
2023-05-14T22:16:28.462Z,100027.00
2023-05-14T22:20:40.840Z,100025.41
2023-05-14T22:24:53.217Z,100028.69
2023-05-14T22:29:05.607Z,100022.63
2023-05-14T22:33:19.796Z,100002.56
2023-05-14T22:37:32.258Z,100000.03
2023-05-14T22:41:44.655Z,100000.50
2023-05-14T22:45:57.063Z,100000.03
2023-05-14T22:50:11.865Z,99994.16
2023-05-14T22:54:24.246Z,99989.94
2023-05-14T22:58:37.854Z,99983.13
2023-05-14T23:02:50.342Z,100000.75
2023-05-14T23:07:03.047Z,100008.09
2023-05-14T23:11:15.910Z,100014.38
2023-05-14T23:15:28.377Z,100024.50
2023-05-14T23:19:42.100Z,100024.75
2023-05-14T23:23:54.553Z,100036.16
2023-05-14T23:28:07.406Z,100048.19
2023-05-14T23:32:20.171Z,100049.66
2023-05-14T23:36:36.308Z,100034.78
2023-05-14T23:40:48.714Z,100031.97
2023-05-14T23:45:03.626Z,100026.53
2023-05-14T23:49:16.164Z,100024.16
2023-05-14T23:53:28.550Z,100023.34
2023-05-14T23:57:41.512Z,100011.59
